createdAt,value
2019-03-31T00:00:44.011Z,998.54
2019-03-31T00:01:43.992Z,998.53
2019-03-31T00:02:43.954Z,998.53
2019-03-31T00:03:43.934Z,998.53
2019-03-31T00:04:43.922Z,998.52
2019-03-31T00:05:43.919Z,998.52
2019-03-31T00:06:43.887Z,998.51
2019-03-31T00:07:43.841Z,998.55
2019-03-31T00:08:43.835Z,998.53
2019-03-31T00:09:43.789Z,998.52
2019-03-31T00:10:43.773Z,998.51
2019-03-31T00:11:43.748Z,998.54
2019-03-31T00:12:43.725Z,998.59
2019-03-31T00:13:43.703Z,998.54
2019-03-31T00:14:43.693Z,998.54
2019-03-31T00:15:43.658Z,998.56
2019-03-31T00:16:43.651Z,998.53
2019-03-31T00:17:43.735Z,998.52
2019-03-31T00:18:43.607Z,998.52
2019-03-31T00:19:43.598Z,998.51
2019-03-31T00:20:43.540Z,998.51
2019-03-31T00:21:43.521Z,998.52
2019-03-31T00:22:43.537Z,998.50
2019-03-31T00:23:43.479Z,998.50
2019-03-31T00:24:43.447Z,998.50
2019-03-31T00:25:43.422Z,998.50
2019-03-31T00:26:43.467Z,998.52
2019-03-31T00:27:43.378Z,998.48
2019-03-31T00:28:43.361Z,998.45
2019-03-31T00:29:43.347Z,998.49
2019-03-31T00:30:43.311Z,998.49
2019-03-31T00:31:43.278Z,998.53
2019-03-31T00:32:43.275Z,998.52
2019-03-31T00:33:43.246Z,998.52
2019-03-31T00:34:43.243Z,998.51
2019-03-31T00:35:43.269Z,998.51
2019-03-31T00:36:43.186Z,998.51
2019-03-31T00:37:43.157Z,998.53
2019-03-31T00:38:43.118Z,998.51
2019-03-31T00:39:43.105Z,998.54
2019-03-31T00:40:43.095Z,998.56
2019-03-31T00:41:43.135Z,998.57
2019-03-31T00:42:43.058Z,998.53
2019-03-31T00:43:43.029Z,998.52
2019-03-31T00:44:42.980Z,998.57
2019-03-31T00:45:42.958Z,998.52
2019-03-31T00:46:42.928Z,998.59
2019-03-31T00:47:42.912Z,998.53
2019-03-31T00:48:42.887Z,998.57
2019-03-31T00:49:42.861Z,998.61
2019-03-31T00:50:42.844Z,998.61
2019-03-31T00:51:42.844Z,998.63
2019-03-31T00:52:42.798Z,998.60
2019-03-31T00:53:42.767Z,998.62
2019-03-31T00:54:42.751Z,998.60
2019-03-31T00:55:42.725Z,998.59
2019-03-31T00:56:42.705Z,998.63
2019-03-31T00:57:42.677Z,998.62
2019-03-31T00:58:42.698Z,998.64
2019-03-31T00:59:42.626Z,998.65
2019-03-31T01:00:42.603Z,998.62
2019-03-31T01:01:42.582Z,998.59
2019-03-31T01:02:42.557Z,998.62
2019-03-31T01:03:42.563Z,998.60
2019-03-31T01:04:42.514Z,998.59
2019-03-31T01:05:42.486Z,998.58
2019-03-31T01:06:42.461Z,998.58
2019-03-31T01:07:42.438Z,998.55
2019-03-31T01:08:42.428Z,998.52
2019-03-31T01:09:42.430Z,998.55
2019-03-31T01:10:42.407Z,998.54
2019-03-31T01:11:42.349Z,998.50
2019-03-31T01:12:42.328Z,998.51
2019-03-31T01:13:42.321Z,998.47
2019-03-31T01:14:42.280Z,998.51
2019-03-31T01:15:42.254Z,998.48
2019-03-31T01:16:42.242Z,998.47
2019-03-31T01:17:42.208Z,998.41
2019-03-31T01:18:42.185Z,998.42
2019-03-31T01:19:42.160Z,998.44
2019-03-31T01:20:42.163Z,998.42
2019-03-31T01:21:42.109Z,998.42
2019-03-31T01:22:42.087Z,998.42
2019-03-31T01:23:42.063Z,998.42
2019-03-31T01:24:42.041Z,998.40
2019-03-31T01:25:42.025Z,998.43
2019-03-31T01:26:41.987Z,998.41
2019-03-31T01:27:41.985Z,998.39
2019-03-31T01:28:41.942Z,998.43
2019-03-31T01:29:41.927Z,998.38
2019-03-31T01:30:41.901Z,998.40
2019-03-31T01:31:50.056Z,998.39
2019-03-31T01:32:41.900Z,998.40
2019-03-31T01:33:41.830Z,998.40
2019-03-31T01:34:41.823Z,998.44
2019-03-31T01:35:41.776Z,998.40
2019-03-31T01:36:41.795Z,998.41
2019-03-31T01:37:41.734Z,998.37
2019-03-31T01:38:41.709Z,998.37
2019-03-31T01:39:41.693Z,998.35
2019-03-31T01:40:41.683Z,998.34
2019-03-31T01:41:41.654Z,998.38
2019-03-31T01:42:41.618Z,998.39
2019-03-31T01:43:41.596Z,998.35
2019-03-31T01:44:41.581Z,998.37
2019-03-31T01:45:41.544Z,998.37
2019-03-31T01:46:41.555Z,998.31
2019-03-31T01:47:41.541Z,998.38
2019-03-31T01:48:41.472Z,998.38
2019-03-31T01:49:41.455Z,998.34
2019-03-31T01:50:41.487Z,998.35
2019-03-31T01:51:41.405Z,998.35
2019-03-31T01:52:41.377Z,998.35
2019-03-31T01:53:41.373Z,998.35
2019-03-31T01:54:41.332Z,998.32
2019-03-31T01:55:41.374Z,998.34
2019-03-31T01:56:44.583Z,998.36
2019-03-31T01:57:41.268Z,998.35
2019-03-31T01:58:41.255Z,998.37
2019-03-31T01:59:41.234Z,998.39
2019-03-31T02:00:41.202Z,998.37
2019-03-31T02:01:41.188Z,998.35
2019-03-31T02:02:41.144Z,998.37
2019-03-31T02:03:41.118Z,998.33
2019-03-31T02:04:41.118Z,998.37
2019-03-31T02:05:41.073Z,998.34
2019-03-31T02:06:41.051Z,998.37
2019-03-31T02:07:41.044Z,998.33
2019-03-31T02:08:41.016Z,998.39
2019-03-31T02:09:41.029Z,998.39
2019-03-31T02:10:40.949Z,998.40
2019-03-31T02:11:40.953Z,998.41
2019-03-31T02:12:40.904Z,998.40
2019-03-31T02:13:40.904Z,998.38
2019-03-31T02:14:40.865Z,998.39
2019-03-31T02:15:40.836Z,998.39
2019-03-31T02:16:40.836Z,998.37
2019-03-31T02:17:40.799Z,998.40
2019-03-31T02:18:40.763Z,998.38
2019-03-31T02:19:40.738Z,998.38
2019-03-31T02:20:40.718Z,998.36
2019-03-31T02:21:40.696Z,998.38
2019-03-31T02:22:40.668Z,998.34
2019-03-31T02:23:40.642Z,998.34
2019-03-31T02:24:40.624Z,998.34
2019-03-31T02:25:40.615Z,998.32
2019-03-31T02:26:40.576Z,998.32
2019-03-31T02:27:40.563Z,998.30
2019-03-31T02:28:40.528Z,998.27
2019-03-31T02:29:40.518Z,998.27
2019-03-31T02:30:40.482Z,998.23
2019-03-31T02:31:40.468Z,998.24
2019-03-31T02:32:40.435Z,998.22
2019-03-31T02:33:40.418Z,998.21
2019-03-31T02:34:40.384Z,998.22
2019-03-31T02:35:40.393Z,998.20
2019-03-31T02:36:40.344Z,998.21
2019-03-31T02:37:40.312Z,998.22
2019-03-31T02:38:40.295Z,998.24
2019-03-31T02:39:40.284Z,998.27
2019-03-31T02:40:40.251Z,998.23
2019-03-31T02:41:40.222Z,998.23
2019-03-31T02:42:40.214Z,998.24
2019-03-31T02:43:40.206Z,998.24
2019-03-31T02:44:40.147Z,998.24
2019-03-31T02:45:40.129Z,998.24
2019-03-31T02:46:40.115Z,998.25
2019-03-31T02:47:40.110Z,998.23
2019-03-31T02:48:40.060Z,998.26
2019-03-31T02:49:40.031Z,998.26
2019-03-31T02:50:40.017Z,998.27
2019-03-31T02:51:39.995Z,998.20
2019-03-31T02:52:39.992Z,998.25
2019-03-31T02:53:39.963Z,998.25
2019-03-31T02:54:39.916Z,998.25
2019-03-31T02:55:39.892Z,998.20
2019-03-31T02:56:39.870Z,998.23
2019-03-31T02:57:39.916Z,998.25
2019-03-31T02:58:39.829Z,998.21
2019-03-31T02:59:39.804Z,998.21
2019-03-31T03:00:39.816Z,998.24
2019-03-31T03:01:39.751Z,998.23
2019-03-31T03:02:42.609Z,998.22
2019-03-31T03:03:39.728Z,998.20
2019-03-31T03:04:39.705Z,998.19
2019-03-31T03:05:39.685Z,998.18
2019-03-31T03:06:39.630Z,998.18
2019-03-31T03:07:39.622Z,998.15
2019-03-31T03:08:39.586Z,998.15
2019-03-31T03:09:39.559Z,998.18
2019-03-31T03:10:39.590Z,998.17
2019-03-31T03:11:39.514Z,998.16
2019-03-31T03:12:39.524Z,998.19
2019-03-31T03:13:39.482Z,998.17
2019-03-31T03:14:39.457Z,998.18
2019-03-31T03:15:39.422Z,998.17
2019-03-31T03:16:39.393Z,998.19
2019-03-31T03:17:39.373Z,998.21
2019-03-31T03:18:39.352Z,998.17
2019-03-31T03:19:39.367Z,998.16
2019-03-31T03:20:39.360Z,998.17
2019-03-31T03:21:39.282Z,998.17
2019-03-31T03:22:39.258Z,998.16
2019-03-31T03:23:39.239Z,998.15
2019-03-31T03:24:39.217Z,998.16
2019-03-31T03:25:55.210Z,998.19
2019-03-31T03:26:39.177Z,998.18
2019-03-31T03:27:39.168Z,998.19
2019-03-31T03:28:39.111Z,998.14
2019-03-31T03:29:39.093Z,998.15
2019-03-31T03:30:39.164Z,998.12
2019-03-31T03:31:39.038Z,998.14
2019-03-31T03:32:39.017Z,998.14
2019-03-31T03:33:38.989Z,998.13
2019-03-31T03:34:39.030Z,998.09
2019-03-31T03:35:38.940Z,998.10
2019-03-31T03:36:42.942Z,998.10
2019-03-31T03:37:38.929Z,998.12
2019-03-31T03:38:38.889Z,998.09
2019-03-31T03:39:38.856Z,998.09
2019-03-31T03:40:38.828Z,998.10
2019-03-31T03:41:38.803Z,998.12
2019-03-31T03:42:38.796Z,998.09
2019-03-31T03:43:54.094Z,998.09
2019-03-31T03:44:38.723Z,998.09
2019-03-31T03:45:38.708Z,998.13
2019-03-31T03:46:38.720Z,998.10
2019-03-31T03:47:38.707Z,998.15
2019-03-31T03:48:38.651Z,998.14
2019-03-31T03:49:38.621Z,998.17
2019-03-31T03:50:38.583Z,998.14
2019-03-31T03:51:38.575Z,998.18
2019-03-31T03:52:38.537Z,998.21
2019-03-31T03:53:38.525Z,998.22
2019-03-31T03:54:38.513Z,998.18
2019-03-31T03:55:38.477Z,998.23
2019-03-31T03:56:38.447Z,998.20
2019-03-31T03:57:38.518Z,998.24
2019-03-31T03:58:38.400Z,998.18
2019-03-31T03:59:38.379Z,998.18
2019-03-31T04:00:38.372Z,998.17
2019-03-31T04:01:38.317Z,998.15
2019-03-31T04:02:38.313Z,998.19
2019-03-31T04:03:38.280Z,998.18
2019-03-31T04:04:38.265Z,998.20
2019-03-31T04:05:38.240Z,998.20
2019-03-31T04:06:38.342Z,998.20
2019-03-31T04:07:38.217Z,998.19
2019-03-31T04:08:38.175Z,998.20
2019-03-31T04:09:38.169Z,998.20
2019-03-31T04:10:38.110Z,998.15
2019-03-31T04:11:38.149Z,998.18
2019-03-31T04:12:38.081Z,998.21
2019-03-31T04:13:38.040Z,998.20
2019-03-31T04:14:38.014Z,998.20
2019-03-31T04:15:37.998Z,998.20
2019-03-31T04:16:37.990Z,998.24
2019-03-31T04:17:37.965Z,998.23
2019-03-31T04:18:37.916Z,998.25
2019-03-31T04:19:37.903Z,998.22
2019-03-31T04:20:39.576Z,998.26
2019-03-31T04:21:37.856Z,998.25
2019-03-31T04:22:37.818Z,998.27
2019-03-31T04:23:37.812Z,998.23
2019-03-31T04:24:37.781Z,998.25
2019-03-31T04:25:37.793Z,998.27
2019-03-31T04:26:37.735Z,998.23
2019-03-31T04:27:37.725Z,998.25
2019-03-31T04:28:37.693Z,998.23
2019-03-31T04:29:37.664Z,998.22
2019-03-31T04:30:37.629Z,998.20
2019-03-31T04:31:37.638Z,998.26
2019-03-31T04:32:38.912Z,998.24
2019-03-31T04:33:50.523Z,998.20
2019-03-31T04:34:37.551Z,998.23
2019-03-31T04:35:37.510Z,998.23
2019-03-31T04:36:37.495Z,998.24
2019-03-31T04:37:37.472Z,998.22
2019-03-31T04:38:37.489Z,998.28
2019-03-31T04:39:37.413Z,998.24
2019-03-31T04:40:37.405Z,998.24
2019-03-31T04:41:37.381Z,998.24
2019-03-31T04:42:37.362Z,998.22
2019-03-31T04:43:37.327Z,998.22
2019-03-31T04:44:37.295Z,998.27
2019-03-31T04:45:37.301Z,998.21
2019-03-31T04:46:37.261Z,998.23
2019-03-31T04:47:37.241Z,998.23
2019-03-31T04:48:37.218Z,998.22
2019-03-31T04:49:37.186Z,998.24
2019-03-31T04:50:37.193Z,998.22
2019-03-31T04:51:37.132Z,998.22
2019-03-31T04:52:37.115Z,998.21
2019-03-31T04:53:37.090Z,998.26
2019-03-31T04:54:37.060Z,998.22
2019-03-31T04:55:37.040Z,998.25
2019-03-31T04:56:37.012Z,998.25
2019-03-31T04:57:37.003Z,998.24
2019-03-31T04:58:36.967Z,998.28
2019-03-31T04:59:36.951Z,998.25
2019-03-31T05:00:36.910Z,998.27
2019-03-31T05:01:36.910Z,998.26
2019-03-31T05:02:36.862Z,998.26
2019-03-31T05:03:36.855Z,998.28
2019-03-31T05:04:36.814Z,998.26
2019-03-31T05:05:36.797Z,998.30
2019-03-31T05:06:36.791Z,998.29
2019-03-31T05:07:36.807Z,998.30
2019-03-31T05:08:36.813Z,998.29
2019-03-31T05:09:36.695Z,998.29
2019-03-31T05:10:36.685Z,998.31
2019-03-31T05:11:36.691Z,998.30
2019-03-31T05:12:36.698Z,998.31
2019-03-31T05:13:36.604Z,998.31
2019-03-31T05:14:36.588Z,998.32
2019-03-31T05:15:36.549Z,998.34
2019-03-31T05:16:36.534Z,998.36
2019-03-31T05:17:36.561Z,998.35
2019-03-31T05:18:36.482Z,998.32
2019-03-31T05:19:36.466Z,998.35
2019-03-31T05:20:36.435Z,998.36
2019-03-31T05:21:36.419Z,998.35
2019-03-31T05:22:36.387Z,998.40
2019-03-31T05:23:36.374Z,998.39
2019-03-31T05:24:36.346Z,998.35
2019-03-31T05:25:36.345Z,998.37
2019-03-31T05:26:36.319Z,998.39
2019-03-31T05:27:36.269Z,998.39
2019-03-31T05:28:36.243Z,998.37
2019-03-31T05:29:36.246Z,998.38
2019-03-31T05:30:36.205Z,998.36
2019-03-31T05:31:36.175Z,998.40
2019-03-31T05:32:36.147Z,998.39
2019-03-31T05:33:36.125Z,998.40
2019-03-31T05:34:36.144Z,998.40
2019-03-31T05:35:36.077Z,998.42
2019-03-31T05:36:36.045Z,998.43
2019-03-31T05:37:49.878Z,998.45
2019-03-31T05:38:36.038Z,998.43
2019-03-31T05:39:36.069Z,998.46
2019-03-31T05:40:35.968Z,998.50
2019-03-31T05:41:35.930Z,998.49
2019-03-31T05:42:35.908Z,998.46
2019-03-31T05:43:35.882Z,998.51
2019-03-31T05:44:35.856Z,998.51
2019-03-31T05:45:35.860Z,998.53
2019-03-31T05:46:35.816Z,998.55
2019-03-31T05:47:35.804Z,998.56
2019-03-31T05:48:35.797Z,998.57
2019-03-31T05:49:35.762Z,998.55
2019-03-31T05:50:35.717Z,998.57
2019-03-31T05:51:35.736Z,998.57
2019-03-31T05:52:35.669Z,998.54
2019-03-31T05:53:35.663Z,998.56
2019-03-31T05:54:35.650Z,998.55
2019-03-31T05:55:35.606Z,998.58
2019-03-31T05:56:35.570Z,998.56
2019-03-31T05:57:35.552Z,998.57
2019-03-31T05:58:35.535Z,998.62
2019-03-31T05:59:35.522Z,998.66
2019-03-31T06:00:35.510Z,998.67
2019-03-31T06:01:35.495Z,998.64
2019-03-31T06:02:35.459Z,998.70
2019-03-31T06:03:35.406Z,998.68
2019-03-31T06:04:35.421Z,998.70
2019-03-31T06:05:35.371Z,998.71
2019-03-31T06:06:37.024Z,998.70
2019-03-31T06:07:35.317Z,998.71
2019-03-31T06:08:35.288Z,998.66
2019-03-31T06:09:35.271Z,998.69
2019-03-31T06:10:35.249Z,998.68
2019-03-31T06:11:35.216Z,998.67
2019-03-31T06:12:35.217Z,998.66
2019-03-31T06:13:35.178Z,998.67
2019-03-31T06:14:35.148Z,998.64
2019-03-31T06:15:35.130Z,998.65
2019-03-31T06:16:35.094Z,998.70
2019-03-31T06:17:35.088Z,998.65
2019-03-31T06:18:35.088Z,998.66
2019-03-31T06:19:35.051Z,998.69
2019-03-31T06:20:35.017Z,998.70
2019-03-31T06:21:34.978Z,998.67
2019-03-31T06:22:34.986Z,998.68
2019-03-31T06:23:34.936Z,998.66
2019-03-31T06:24:34.916Z,998.67
2019-03-31T06:25:34.886Z,998.71
2019-03-31T06:26:34.869Z,998.71
2019-03-31T06:27:34.844Z,998.72
2019-03-31T06:28:34.832Z,998.70
2019-03-31T06:29:34.792Z,998.66
2019-03-31T06:30:34.776Z,998.71
2019-03-31T06:31:34.750Z,998.71
2019-03-31T06:32:34.722Z,998.70
2019-03-31T06:33:34.706Z,998.72
2019-03-31T06:34:46.898Z,998.70
2019-03-31T06:35:34.686Z,998.70
2019-03-31T06:36:34.635Z,998.72
2019-03-31T06:37:34.613Z,998.76
2019-03-31T06:38:34.593Z,998.76
2019-03-31T06:39:34.580Z,998.80
2019-03-31T06:40:34.556Z,998.78
2019-03-31T06:41:34.522Z,998.84
2019-03-31T06:42:34.514Z,998.81
2019-03-31T06:43:34.487Z,998.79
2019-03-31T06:44:37.881Z,998.79
2019-03-31T06:45:34.440Z,998.81
2019-03-31T06:46:34.416Z,998.80
2019-03-31T06:47:34.391Z,998.84
2019-03-31T06:48:34.388Z,998.79
2019-03-31T06:49:34.343Z,998.85
2019-03-31T06:50:34.334Z,998.85
2019-03-31T06:51:34.305Z,998.84
2019-03-31T06:52:34.286Z,998.88
2019-03-31T06:53:34.258Z,998.86
2019-03-31T06:54:34.248Z,998.89
2019-03-31T06:55:34.217Z,998.96
2019-03-31T06:56:34.204Z,998.95
2019-03-31T06:57:34.189Z,998.89
2019-03-31T06:58:34.161Z,998.94
2019-03-31T06:59:34.190Z,998.93
2019-03-31T07:00:34.115Z,998.96
2019-03-31T07:01:34.105Z,998.95
2019-03-31T07:02:34.079Z,998.99
2019-03-31T07:03:34.074Z,999.00
2019-03-31T07:04:34.038Z,998.98
2019-03-31T07:05:34.016Z,999.00
2019-03-31T07:06:33.990Z,998.98
2019-03-31T07:07:33.974Z,998.98
2019-03-31T07:08:33.969Z,998.98
2019-03-31T07:09:33.946Z,999.00
2019-03-31T07:10:33.911Z,998.93
2019-03-31T07:11:33.901Z,998.94
2019-03-31T07:12:33.889Z,998.99
2019-03-31T07:13:33.860Z,998.95
2019-03-31T07:14:33.835Z,998.94
2019-03-31T07:15:33.818Z,998.97
2019-03-31T07:16:33.796Z,998.93
2019-03-31T07:17:33.786Z,998.99
2019-03-31T07:18:33.775Z,998.96
2019-03-31T07:19:33.738Z,998.97
2019-03-31T07:20:33.725Z,998.98
2019-03-31T07:21:33.722Z,998.95
2019-03-31T07:22:33.685Z,998.95
2019-03-31T07:23:33.669Z,998.97
2019-03-31T07:24:33.656Z,999.02
2019-03-31T07:25:36.955Z,999.05
2019-03-31T07:26:33.610Z,999.03
2019-03-31T07:27:33.607Z,999.04
2019-03-31T07:28:33.588Z,999.05
2019-03-31T07:29:33.552Z,999.06
2019-03-31T07:30:33.534Z,999.05
2019-03-31T07:31:33.520Z,999.09
2019-03-31T07:32:33.508Z,999.06
2019-03-31T07:33:33.489Z,999.09
2019-03-31T07:34:33.476Z,999.12
2019-03-31T07:35:33.473Z,999.07
2019-03-31T07:36:33.430Z,999.08
2019-03-31T07:37:46.325Z,999.03
2019-03-31T07:38:39.182Z,999.05
2019-03-31T07:39:33.378Z,999.03
2019-03-31T07:40:33.513Z,999.00
2019-03-31T07:41:33.419Z,999.03
2019-03-31T07:42:33.333Z,999.07
2019-03-31T07:43:33.316Z,999.03
2019-03-31T07:44:33.298Z,999.04
2019-03-31T07:45:33.282Z,999.05
2019-03-31T07:46:33.266Z,999.02
2019-03-31T07:47:33.258Z,999.02
2019-03-31T07:48:33.241Z,999.07
2019-03-31T07:49:33.247Z,999.08
2019-03-31T07:50:33.213Z,999.08
2019-03-31T07:51:33.193Z,999.07
2019-03-31T07:52:33.184Z,999.07
2019-03-31T07:53:33.165Z,999.06
2019-03-31T07:54:33.152Z,999.11
2019-03-31T07:55:33.144Z,999.09
2019-03-31T07:56:33.126Z,999.08
2019-03-31T07:57:33.133Z,999.10
2019-03-31T07:58:33.110Z,999.12
2019-03-31T07:59:33.082Z,999.12
2019-03-31T08:00:33.066Z,999.15
2019-03-31T08:01:33.055Z,999.13
2019-03-31T08:02:33.110Z,999.18
2019-03-31T08:03:33.025Z,999.20
2019-03-31T08:04:33.013Z,999.20
2019-03-31T08:05:36.150Z,999.21
2019-03-31T08:06:32.989Z,999.24
2019-03-31T08:07:32.969Z,999.22
2019-03-31T08:08:32.959Z,999.20
2019-03-31T08:09:32.943Z,999.21
2019-03-31T08:10:32.931Z,999.27
2019-03-31T08:11:32.922Z,999.22
2019-03-31T08:12:32.908Z,999.31
2019-03-31T08:13:32.888Z,999.28
2019-03-31T08:14:32.933Z,999.29
2019-03-31T08:15:32.866Z,999.34
2019-03-31T08:16:32.850Z,999.33
2019-03-31T08:17:32.834Z,999.33
2019-03-31T08:18:32.830Z,999.34
2019-03-31T08:19:32.809Z,999.39
2019-03-31T08:20:32.798Z,999.36
2019-03-31T08:21:32.817Z,999.38
2019-03-31T08:22:32.772Z,999.40
2019-03-31T08:23:32.755Z,999.37
2019-03-31T08:24:32.777Z,999.39
2019-03-31T08:25:32.736Z,999.36
2019-03-31T08:26:32.717Z,999.37
2019-03-31T08:27:32.706Z,999.37
2019-03-31T08:28:32.760Z,999.37
2019-03-31T08:29:32.678Z,999.37
2019-03-31T08:30:32.669Z,999.39
2019-03-31T08:31:32.656Z,999.39
2019-03-31T08:32:32.644Z,999.38
2019-03-31T08:33:32.649Z,999.37
2019-03-31T08:34:32.627Z,999.40
2019-03-31T08:35:46.301Z,999.39
2019-03-31T08:36:35.162Z,999.42
2019-03-31T08:37:32.586Z,999.38
2019-03-31T08:38:32.575Z,999.40
2019-03-31T08:39:32.564Z,999.39
2019-03-31T08:40:32.550Z,999.41
2019-03-31T08:41:32.534Z,999.42
2019-03-31T08:42:32.521Z,999.41
2019-03-31T08:43:32.523Z,999.41
2019-03-31T08:44:32.495Z,999.42
2019-03-31T08:45:32.483Z,999.41
2019-03-31T08:46:32.470Z,999.44
2019-03-31T08:47:32.459Z,999.41
2019-03-31T08:48:32.453Z,999.41
2019-03-31T08:49:32.431Z,999.43
2019-03-31T08:50:34.809Z,999.42
2019-03-31T08:51:32.412Z,999.42
2019-03-31T08:52:32.399Z,999.45
2019-03-31T08:53:32.393Z,999.43
2019-03-31T08:54:32.376Z,999.49
2019-03-31T08:55:32.360Z,999.47
2019-03-31T08:56:32.345Z,999.49
2019-03-31T08:57:32.329Z,999.53
2019-03-31T08:58:32.348Z,999.54
2019-03-31T08:59:32.315Z,999.54
2019-03-31T09:00:32.300Z,999.51
2019-03-31T09:01:32.284Z,999.53
2019-03-31T09:02:32.277Z,999.59
2019-03-31T09:03:32.258Z,999.55
2019-03-31T09:04:32.246Z,999.56
2019-03-31T09:05:32.259Z,999.55
2019-03-31T09:06:32.230Z,999.53
2019-03-31T09:07:32.216Z,999.53
2019-03-31T09:08:32.201Z,999.56
2019-03-31T09:09:32.188Z,999.55
2019-03-31T09:10:32.181Z,999.54
2019-03-31T09:11:32.165Z,999.60
2019-03-31T09:12:32.158Z,999.59
2019-03-31T09:13:32.143Z,999.56
2019-03-31T09:14:32.130Z,999.56
2019-03-31T09:15:32.124Z,999.51
2019-03-31T09:16:32.111Z,999.57
2019-03-31T09:17:32.098Z,999.58
2019-03-31T09:18:32.082Z,999.59
2019-03-31T09:19:32.070Z,999.58
2019-03-31T09:20:32.060Z,999.57
2019-03-31T09:21:32.047Z,999.55
2019-03-31T09:22:32.038Z,999.49
2019-03-31T09:23:32.022Z,999.56
2019-03-31T09:24:32.012Z,999.51
2019-03-31T09:25:31.999Z,999.56
2019-03-31T09:26:31.992Z,999.54
2019-03-31T09:27:31.976Z,999.56
2019-03-31T09:28:31.970Z,999.55
2019-03-31T09:29:31.957Z,999.54
2019-03-31T09:30:31.938Z,999.53
2019-03-31T09:31:31.935Z,999.51
2019-03-31T09:32:31.915Z,999.50
2019-03-31T09:33:31.903Z,999.54
2019-03-31T09:34:31.893Z,999.51
2019-03-31T09:35:31.883Z,999.55
2019-03-31T09:36:31.874Z,999.58
2019-03-31T09:37:31.874Z,999.57
2019-03-31T09:38:31.852Z,999.53
2019-03-31T09:39:31.839Z,999.57
2019-03-31T09:40:31.826Z,999.62
2019-03-31T09:41:31.821Z,999.60
2019-03-31T09:42:31.805Z,999.62
2019-03-31T09:43:31.793Z,999.60
2019-03-31T09:44:31.780Z,999.57
2019-03-31T09:45:31.767Z,999.58
2019-03-31T09:46:31.764Z,999.55
2019-03-31T09:47:31.807Z,999.58
2019-03-31T09:48:31.741Z,999.58
2019-03-31T09:49:31.738Z,999.60
2019-03-31T09:50:31.714Z,999.59
2019-03-31T09:51:31.709Z,999.64
2019-03-31T09:52:31.692Z,999.62
2019-03-31T09:53:31.685Z,999.63
2019-03-31T09:54:31.674Z,999.66
2019-03-31T09:55:31.655Z,999.65
2019-03-31T09:56:31.645Z,999.62
2019-03-31T09:57:31.645Z,999.63
2019-03-31T09:58:31.623Z,999.61
2019-03-31T09:59:31.615Z,999.63
2019-03-31T10:00:31.611Z,999.61
2019-03-31T10:01:31.598Z,999.61
2019-03-31T10:02:31.582Z,999.59
2019-03-31T10:03:31.592Z,999.61
2019-03-31T10:04:31.566Z,999.61
2019-03-31T10:05:31.556Z,999.61
2019-03-31T10:06:31.553Z,999.57
2019-03-31T10:07:31.544Z,999.55
2019-03-31T10:08:31.518Z,999.56
2019-03-31T10:09:31.508Z,999.52
2019-03-31T10:10:31.499Z,999.54
2019-03-31T10:11:31.489Z,999.56
2019-03-31T10:12:31.479Z,999.50
2019-03-31T10:13:31.473Z,999.51
2019-03-31T10:14:31.461Z,999.48
2019-03-31T10:15:31.448Z,999.51
2019-03-31T10:16:31.438Z,999.48
2019-03-31T10:17:31.448Z,999.45
2019-03-31T10:18:31.419Z,999.46
2019-03-31T10:19:31.413Z,999.47
2019-03-31T10:20:31.886Z,999.43
2019-03-31T10:21:31.390Z,999.48
2019-03-31T10:22:31.384Z,999.47
2019-03-31T10:23:31.375Z,999.47
2019-03-31T10:24:31.365Z,999.47
2019-03-31T10:25:31.356Z,999.43
2019-03-31T10:26:32.454Z,999.44
2019-03-31T10:27:31.342Z,999.42
2019-03-31T10:28:31.333Z,999.39
2019-03-31T10:29:31.323Z,999.42
2019-03-31T10:30:31.322Z,999.44
2019-03-31T10:31:31.301Z,999.43
2019-03-31T10:32:31.312Z,999.44
2019-03-31T10:33:31.293Z,999.43
2019-03-31T10:34:31.285Z,999.39
2019-03-31T10:35:31.285Z,999.41
2019-03-31T10:36:43.915Z,999.36
2019-03-31T10:37:31.269Z,999.41
2019-03-31T10:38:31.259Z,999.39
2019-03-31T10:39:31.255Z,999.39
2019-03-31T10:40:31.250Z,999.38
2019-03-31T10:41:31.310Z,999.35
2019-03-31T10:42:31.233Z,999.35
2019-03-31T10:43:31.228Z,999.35
2019-03-31T10:44:31.231Z,999.35
2019-03-31T10:45:31.206Z,999.33
2019-03-31T10:46:31.202Z,999.31
2019-03-31T10:47:31.793Z,999.29
2019-03-31T10:48:31.192Z,999.35
2019-03-31T10:49:31.186Z,999.29
2019-03-31T10:50:31.179Z,999.31
2019-03-31T10:51:31.176Z,999.28
2019-03-31T10:52:31.164Z,999.30
2019-03-31T10:53:31.163Z,999.30
2019-03-31T10:54:31.147Z,999.19
2019-03-31T10:55:31.144Z,999.29
2019-03-31T10:56:31.138Z,999.28
2019-03-31T10:57:31.152Z,999.25
2019-03-31T10:58:31.125Z,999.24
2019-03-31T10:59:31.126Z,999.23
2019-03-31T11:00:31.123Z,999.25
2019-03-31T11:01:31.109Z,999.27
2019-03-31T11:02:31.103Z,999.23
2019-03-31T11:03:33.036Z,999.21
2019-03-31T11:04:31.103Z,999.28
2019-03-31T11:05:31.083Z,999.25
2019-03-31T11:06:31.090Z,999.23
2019-03-31T11:07:31.077Z,999.21
2019-03-31T11:08:31.074Z,999.29
2019-03-31T11:09:34.226Z,999.24
2019-03-31T11:10:31.058Z,999.24
2019-03-31T11:11:31.058Z,999.24
2019-03-31T11:12:31.064Z,999.26
2019-03-31T11:13:31.058Z,999.27
2019-03-31T11:14:31.059Z,999.25
2019-03-31T11:15:31.039Z,999.26
2019-03-31T11:16:31.031Z,999.25
2019-03-31T11:17:31.031Z,999.27
2019-03-31T11:18:31.022Z,999.25
2019-03-31T11:19:31.031Z,999.25
2019-03-31T11:20:31.024Z,999.22
2019-03-31T11:21:31.015Z,999.27
2019-03-31T11:22:31.005Z,999.23
2019-03-31T11:23:31.005Z,999.22
2019-03-31T11:24:31.014Z,999.27
2019-03-31T11:25:30.996Z,999.25
2019-03-31T11:26:30.986Z,999.26
2019-03-31T11:27:30.991Z,999.29
2019-03-31T11:28:30.986Z,999.24
2019-03-31T11:29:30.982Z,999.27
2019-03-31T11:30:30.975Z,999.28
2019-03-31T11:31:30.983Z,999.22
2019-03-31T11:32:30.974Z,999.24
2019-03-31T11:33:30.976Z,999.29
2019-03-31T11:34:30.967Z,999.22
2019-03-31T11:35:30.957Z,999.27
2019-03-31T11:36:30.959Z,999.27
2019-03-31T11:37:30.951Z,999.24
2019-03-31T11:38:30.951Z,999.22
2019-03-31T11:39:30.941Z,999.23
2019-03-31T11:40:30.941Z,999.23
2019-03-31T11:41:30.960Z,999.25
2019-03-31T11:42:30.947Z,999.24
2019-03-31T11:43:30.929Z,999.23
2019-03-31T11:44:30.932Z,999.25
2019-03-31T11:45:30.928Z,999.31
2019-03-31T11:46:30.928Z,999.29
2019-03-31T11:47:30.924Z,999.26
2019-03-31T11:48:30.948Z,999.25
2019-03-31T11:49:30.918Z,999.23
2019-03-31T11:50:30.926Z,999.21
2019-03-31T11:51:30.917Z,999.24
2019-03-31T11:52:30.912Z,999.20
2019-03-31T11:53:30.906Z,999.21
2019-03-31T11:54:30.906Z,999.25
2019-03-31T11:55:30.902Z,999.23
2019-03-31T11:56:30.899Z,999.24
2019-03-31T11:57:30.902Z,999.25
2019-03-31T11:58:32.433Z,999.22
2019-03-31T11:59:30.896Z,999.19
2019-03-31T12:00:30.958Z,999.22
2019-03-31T12:01:30.888Z,999.20
2019-03-31T12:02:30.894Z,999.19
2019-03-31T12:03:31.404Z,999.11
2019-03-31T12:04:30.885Z,999.13
2019-03-31T12:05:30.880Z,999.17
2019-03-31T12:06:30.888Z,999.13
2019-03-31T12:07:30.875Z,999.13
2019-03-31T12:08:30.877Z,999.14
2019-03-31T12:09:30.870Z,999.09
2019-03-31T12:10:30.882Z,999.12
2019-03-31T12:11:30.874Z,999.15
2019-03-31T12:12:30.864Z,999.11
2019-03-31T12:13:30.857Z,999.12
2019-03-31T12:14:30.861Z,999.10
2019-03-31T12:15:30.852Z,999.05
2019-03-31T12:16:30.858Z,999.07
2019-03-31T12:17:30.854Z,999.03
2019-03-31T12:18:30.846Z,999.05
2019-03-31T12:19:30.850Z,999.03
2019-03-31T12:20:30.853Z,999.02
2019-03-31T12:21:30.850Z,999.01
2019-03-31T12:22:30.847Z,999.04
2019-03-31T12:23:30.842Z,999.05
2019-03-31T12:24:30.835Z,999.01
2019-03-31T12:25:30.833Z,999.00
2019-03-31T12:26:30.833Z,998.97
2019-03-31T12:27:30.829Z,998.99
2019-03-31T12:28:30.827Z,998.95